Time;durP1;ratioP1;P1;durP2;ratioP2;P2;SDS_P1;SDS_P2;PMS_P1;PMS_P2;Temp;Humidity;BMP_temperature;BMP_pressure;BME280_temperature;BME280_humidity;BME280_pressure;Samples;Min_cycle;Max_cycle;Signal;HPM_P1;HPM_P2
2022/11/12 00:02:06;;;;;;;14.32;7.70;;;;;;;7.03;100.00;100364.03;4893197;29;20411;-87
2022/11/12 00:05:11;;;;;;;8.75;5.50;;;;;;;6.97;100.00;100356.41;4881082;29;20385;-84
2022/11/12 00:08:16;;;;;;;11.38;6.80;;;;;;;6.98;100.00;100350.28;4889226;29;20089;-84
2022/11/12 00:11:20;;;;;;;10.02;6.47;;;;;;;6.91;100.00;100346.97;4904638;29;20056;-84
2022/11/12 00:14:23;;;;;;;9.73;7.13;;;;;;;6.98;100.00;100348.53;4895842;29;20066;-86
2022/11/12 00:17:28;;;;;;;11.80;7.82;;;;;;;6.97;100.00;100349.41;4893606;29;20052;-85
2022/11/12 00:20:32;;;;;;;10.48;6.50;;;;;;;6.94;100.00;100354.72;4897739;29;20051;-84
2022/11/12 00:23:36;;;;;;;11.88;6.65;;;;;;;7.01;100.00;100364.09;4888522;29;20049;-87
2022/11/12 00:26:38;;;;;;;11.60;7.20;;;;;;;6.86;100.00;100364.50;4890763;29;20475;-86
2022/11/12 00:29:42;;;;;;;11.23;6.80;;;;;;;6.82;100.00;100363.72;4881328;29;20044;-87
2022/11/12 00:32:46;;;;;;;10.82;7.00;;;;;;;6.73;100.00;100361.38;4900081;29;20505;-85
2022/11/12 00:35:49;;;;;;;8.07;5.90;;;;;;;6.74;100.00;100365.69;4894274;29;20504;-85
2022/11/12 00:38:52;;;;;;;10.80;6.55;;;;;;;6.70;100.00;100356.25;4893412;29;20056;-83
2022/11/12 00:41:58;;;;;;;12.65;7.10;;;;;;;6.71;100.00;100351.00;4902435;29;20422;-86
2022/11/12 00:45:01;;;;;;;15.30;7.43;;;;;;;6.73;100.00;100346.59;4895054;29;20037;-84
2022/11/12 00:48:04;;;;;;;12.70;7.47;;;;;;;6.76;100.00;100346.50;4880553;29;20080;-84
2022/11/12 00:51:08;;;;;;;11.65;7.28;;;;;;;6.69;100.00;100344.97;4884232;29;20492;-84
2022/11/12 00:54:12;;;;;;;9.95;7.20;;;;;;;6.76;100.00;100340.44;4881812;29;20123;-85
2022/11/12 00:57:15;;;;;;;13.40;7.10;;;;;;;6.78;100.00;100339.53;4889006;29;20109;-87
2022/11/12 01:00:19;;;;;;;13.23;7.07;;;;;;;6.81;100.00;100342.91;4891120;29;20396;-86
2022/11/12 01:03:23;;;;;;;10.43;7.13;;;;;;;6.88;100.00;100341.88;4878079;29;20112;-84
2022/11/12 01:06:26;;;;;;;11.70;7.22;;;;;;;6.87;100.00;100341.00;4892401;29;20324;-86
2022/11/12 01:09:29;;;;;;;14.50;7.15;;;;;;;6.86;100.00;100331.47;4891243;29;20044;-85
2022/11/12 01:12:32;;;;;;;13.27;7.43;;;;;;;6.83;100.00;100336.78;4885370;29;20088;-85
2022/11/12 01:15:39;;;;;;;11.00;7.75;;;;;;;6.82;100.00;100332.44;4899878;29;20105;-85
2022/11/12 01:18:43;;;;;;;9.90;6.47;;;;;;;6.87;100.00;100321.94;4889685;29;20064;-85
2022/11/12 01:21:46;;;;;;;11.55;7.15;;;;;;;6.89;100.00;100330.53;4883790;29;20109;-85
2022/11/12 01:24:49;;;;;;;9.55;6.40;;;;;;;6.80;100.00;100330.78;4895646;29;20044;-86
2022/11/12 01:27:53;;;;;;;10.95;6.40;;;;;;;6.84;100.00;100332.44;4880474;29;20040;-86
2022/11/12 01:30:56;;;;;;;10.25;6.90;;;;;;;6.88;100.00;100326.22;4890916;29;20767;-87
2022/11/12 01:34:03;;;;;;;9.18;5.53;;;;;;;6.95;100.00;100314.75;4882366;29;20123;-86
2022/11/12 01:37:07;;;;;;;9.80;5.57;;;;;;;7.01;100.00;100317.16;4909042;29;20520;-86
2022/11/12 01:40:11;;;;;;;9.50;5.72;;;;;;;6.98;100.00;100305.97;4880815;29;20070;-86
2022/11/12 01:43:15;;;;;;;10.15;6.57;;;;;;;6.84;100.00;100314.19;4899909;29;20041;-86
2022/11/12 01:46:26;;;;;;;12.60;6.95;;;;;;;6.72;100.00;100303.22;4878258;29;20147;-87
2022/11/12 01:49:51;;;;;;;10.90;6.40;;;;;;;6.63;100.00;100306.06;4897883;29;20554;-88
2022/11/12 01:53:00;;;;;;;9.50;6.20;;;;;;;6.63;100.00;100312.13;4892967;29;20041;-85
2022/11/12 01:56:05;;;;;;;8.93;5.50;;;;;;;6.69;100.00;100305.06;4904944;29;20040;-89
2022/11/12 01:59:17;;;;;;;9.82;5.70;;;;;;;6.75;100.00;100291.84;4897601;29;20155;-87
2022/11/12 02:02:21;;;;;;;9.45;6.10;;;;;;;6.80;100.00;100295.19;4895194;29;20433;-86
2022/11/12 02:05:27;;;;;;;9.98;5.47;;;;;;;6.77;100.00;100296.13;4889106;29;20053;-87
2022/11/12 02:08:31;;;;;;;8.98;5.32;;;;;;;6.71;100.00;100291.09;4890524;29;20057;-86
2022/11/12 02:11:35;;;;;;;8.65;4.68;;;;;;;6.63;100.00;100304.31;4899992;29;20044;-88
2022/11/12 02:14:39;;;;;;;7.50;5.22;;;;;;;6.78;100.00;100297.84;4873175;29;20049;-87
2022/11/12 02:17:43;;;;;;;8.30;5.45;;;;;;;6.84;100.00;100295.97;4873098;29;20147;-88
2022/11/12 02:20:54;;;;;;;7.85;5.18;;;;;;;6.85;100.00;100295.06;4872659;29;20576;-87
2022/11/12 02:24:12;;;;;;;8.15;6.07;;;;;;;6.61;100.00;100297.47;4872071;29;20057;-87
2022/11/12 02:27:18;;;;;;;9.80;5.88;;;;;;;6.33;100.00;100290.38;4849795;29;20077;-87
2022/11/12 02:30:35;;;;;;;7.28;4.65;;;;;;;6.23;100.00;100281.97;4848361;29;20049;-89
2022/11/12 02:33:39;;;;;;;7.30;4.30;;;;;;;6.41;100.00;100286.66;4860973;29;20094;-87
2022/11/12 02:36:43;;;;;;;9.15;5.90;;;;;;;6.49;100.00;100283.03;4861546;29;20049;-86
2022/11/12 02:39:46;;;;;;;6.00;4.22;;;;;;;6.36;100.00;100287.69;4871563;29;20080;-86
2022/11/12 02:42:49;;;;;;;7.40;4.97;;;;;;;6.44;100.00;100279.69;4870158;29;20807;-88
2022/11/12 02:45:53;;;;;;;8.77;6.00;;;;;;;6.56;100.00;100291.53;4882086;29;20128;-86
2022/11/12 02:48:57;;;;;;;9.65;5.45;;;;;;;6.64;100.00;100292.16;4887295;29;20061;-86
2022/11/12 02:52:01;;;;;;;7.35;4.80;;;;;;;6.71;100.00;100303.28;4892513;29;20032;-87
2022/11/12 02:55:04;;;;;;;6.18;4.63;;;;;;;6.77;100.00;100306.53;4894468;29;20118;-87
2022/11/12 02:58:12;;;;;;;8.68;5.32;;;;;;;6.67;100.00;100318.13;4887992;29;20479;-87
2022/11/12 03:01:15;;;;;;;7.10;5.20;;;;;;;6.68;100.00;100321.56;4881269;29;20037;-88
2022/11/12 03:04:20;;;;;;;8.65;5.70;;;;;;;6.69;100.00;100331.94;4890873;29;20056;-88
2022/11/12 03:07:23;;;;;;;10.02;4.50;;;;;;;6.72;100.00;100333.63;4894219;29;20051;-88
2022/11/12 03:10:27;;;;;;;5.38;3.58;;;;;;;6.80;100.00;100328.19;4893047;29;20047;-88
2022/11/12 03:13:31;;;;;;;7.28;4.68;;;;;;;6.87;100.00;100325.38;4878969;29;20412;-88
2022/11/12 03:16:34;;;;;;;9.32;6.05;;;;;;;6.83;100.00;100317.69;4890911;29;20036;-87
2022/11/12 03:19:37;;;;;;;12.88;7.30;;;;;;;6.77;100.00;100310.91;4880555;29;20048;-87
2022/11/12 03:22:41;;;;;;;11.23;7.13;;;;;;;6.73;100.00;100298.84;4894672;29;20131;-87
2022/11/12 03:25:44;;;;;;;12.30;7.35;;;;;;;6.67;100.00;100293.81;4899203;29;20132;-86
2022/11/12 03:28:50;;;;;;;14.30;7.32;;;;;;;6.65;100.00;100283.44;4888491;29;20051;-86
2022/11/12 03:31:53;;;;;;;12.75;7.93;;;;;;;6.53;100.00;100285.50;4885572;29;20055;-87
2022/11/12 03:34:58;;;;;;;13.40;7.95;;;;;;;6.54;100.00;100283.75;4884900;29;20456;-88
2022/11/12 03:38:02;;;;;;;14.20;8.18;;;;;;;6.59;100.00;100287.09;4879869;29;20468;-86
2022/11/12 03:41:06;;;;;;;13.52;8.27;;;;;;;6.62;100.00;100278.31;4888141;29;20045;-88
2022/11/12 03:44:09;;;;;;;13.75;8.43;;;;;;;6.68;100.00;100290.31;4878720;29;20048;-87
2022/11/12 03:47:12;;;;;;;13.70;8.80;;;;;;;6.72;100.00;100271.09;4899286;29;20139;-86
2022/11/12 03:50:17;;;;;;;14.77;8.60;;;;;;;6.81;100.00;100276.03;4889797;29;20048;-87
2022/11/12 03:53:21;;;;;;;12.52;8.10;;;;;;;6.89;100.00;100266.25;4889357;29;20413;-87
2022/11/12 03:56:26;;;;;;;11.50;7.88;;;;;;;7.07;100.00;100270.97;4874917;29;20609;-87
2022/11/12 03:59:29;;;;;;;12.85;8.05;;;;;;;7.14;100.00;100270.75;4889745;29;20048;-87
2022/11/12 04:02:32;;;;;;;13.82;8.57;;;;;;;7.17;100.00;100266.31;4891865;29;20051;-88
2022/11/12 04:08:58;;;;;;;15.48;8.95;;;;;;;7.21;100.00;100276.63;4872735;29;20048;-89
2022/11/12 04:13:26;;;;;;;14.50;8.25;;;;;;;7.20;100.00;100267.09;4877931;29;20207;-88
2022/11/12 04:15:28;;;;;;;13.75;7.90;;;;;;;7.25;100.00;100264.34;4889422;29;20112;-87
2022/11/12 04:21:57;;;;;;;;;;;;;;;7.26;100.00;100272.09;4902184;29;20036;-88
2022/11/12 04:28:23;;;;;;;13.40;7.65;;;;;;;7.05;100.00;100265.78;4902030;29;20044;-88
2022/11/12 04:31:26;;;;;;;13.23;8.07;;;;;;;7.08;100.00;100270.06;4884441;29;20231;-88
2022/11/12 04:34:29;;;;;;;14.30;8.23;;;;;;;7.08;100.00;100270.06;4878436;29;20060;-87
2022/11/12 04:37:44;;;;;;;14.82;8.65;;;;;;;6.95;100.00;100273.06;4889867;29;20544;-87
2022/11/12 04:47:42;;;;;;;13.75;8.82;;;;;;;6.84;100.00;100296.78;4882782;29;20061;-87
2022/11/12 04:50:59;;;;;;;17.20;9.57;;;;;;;6.80;100.00;100289.13;4877836;29;20056;-86
2022/11/12 04:54:05;;;;;;;18.13;9.63;;;;;;;6.64;100.00;100294.78;4879132;29;20420;-86
2022/11/12 04:57:11;;;;;;;13.23;7.70;;;;;;;6.60;100.00;100295.72;4879173;29;20159;-87
2022/11/12 05:00:15;;;;;;;12.02;7.93;;;;;;;6.55;100.00;100297.59;4881312;29;20079;-87
2022/11/12 05:03:19;;;;;;;12.95;8.25;;;;;;;6.41;100.00;100298.84;4885867;29;20409;-88
2022/11/12 05:09:48;;;;;;;10.15;6.93;;;;;;;6.16;100.00;100292.53;4889795;29;20044;-87
2022/11/12 05:12:51;;;;;;;12.18;8.32;;;;;;;6.22;100.00;100291.50;4894827;29;20052;-87
2022/11/12 05:15:54;;;;;;;14.95;9.60;;;;;;;6.28;100.00;100287.91;4902914;29;20052;-87
2022/11/12 05:18:58;;;;;;;14.15;9.15;;;;;;;6.46;100.00;100283.97;4905644;29;20060;-88
2022/11/12 05:22:04;;;;;;;16.52;9.73;;;;;;;6.56;100.00;100279.34;4879880;29;20132;-90
2022/11/12 05:25:09;;;;;;;14.90;7.72;;;;;;;6.57;100.00;100281.06;4900355;29;20051;-85
2022/11/12 05:28:12;;;;;;;13.05;8.50;;;;;;;6.60;100.00;100285.31;4886479;29;20496;-87
2022/11/12 05:31:15;;;;;;;14.57;8.85;;;;;;;6.70;100.00;100283.31;4895569;29;20840;-88
2022/11/12 05:34:19;;;;;;;15.63;9.57;;;;;;;6.74;100.00;100287.56;4890995;29;20493;-87
2022/11/12 05:37:22;;;;;;;14.63;9.82;;;;;;;6.77;100.00;100280.47;4881714;29;20080;-87
2022/11/12 05:40:25;;;;;;;15.10;9.55;;;;;;;6.78;100.00;100289.16;4890521;29;20075;-88
2022/11/12 05:43:29;;;;;;;15.25;8.48;;;;;;;6.87;100.00;100294.09;4894592;29;20528;-87
2022/11/12 05:46:35;;;;;;;17.63;9.20;;;;;;;6.86;100.00;100294.16;4894785;29;20041;-86
2022/11/12 05:49:40;;;;;;;15.52;8.88;;;;;;;6.59;100.00;100294.03;4892507;29;20033;-88
2022/11/12 05:52:45;;;;;;;14.52;9.95;;;;;;;6.45;100.00;100294.41;4892528;29;20488;-87
2022/11/12 05:55:51;;;;;;;14.77;8.63;;;;;;;6.50;100.00;100297.72;4890768;29;20397;-87
2022/11/12 05:58:56;;;;;;;14.98;9.05;;;;;;;6.44;100.00;100298.78;4895325;29;20040;-88
2022/11/12 06:02:00;;;;;;;17.05;9.93;;;;;;;6.46;100.00;100304.78;4906632;29;20127;-88
2022/11/12 06:05:05;;;;;;;17.40;10.65;;;;;;;6.62;100.00;100297.41;4888175;29;20056;-90
2022/11/12 06:08:09;;;;;;;13.07;9.25;;;;;;;6.63;100.00;100298.25;4868238;29;20057;-84
2022/11/12 06:11:22;;;;;;;15.38;9.25;;;;;;;6.69;100.00;100312.88;4867805;29;20120;-90
2022/11/12 06:14:26;;;;;;;14.10;9.23;;;;;;;6.91;100.00;100313.13;4861574;29;20067;-76
2022/11/12 06:17:30;;;;;;;13.48;7.38;;;;;;;7.15;100.00;100302.88;4862509;29;20048;-86
2022/11/12 06:20:35;;;;;;;9.63;5.80;;;;;;;7.42;100.00;100315.97;4847883;29;20045;-88
2022/11/12 06:24:11;;;;;;;11.40;6.38;;;;;;;7.83;100.00;100317.34;4860700;29;20052;-87
2022/11/12 06:27:17;;;;;;;12.93;8.80;;;;;;;7.83;100.00;100325.16;4845831;29;20152;-88
2022/11/12 06:30:22;;;;;;;12.07;8.13;;;;;;;7.62;100.00;100322.34;4857742;29;20502;-88
2022/11/12 06:33:26;;;;;;;13.30;8.50;;;;;;;8.23;100.00;100315.13;4846024;29;20414;-84
2022/11/12 06:36:31;;;;;;;11.82;8.43;;;;;;;8.33;100.00;100326.13;4858933;29;20064;-87
2022/11/12 06:39:34;;;;;;;11.93;7.60;;;;;;;8.23;98.78;100329.06;4846875;29;20072;-87
2022/11/12 06:42:37;;;;;;;12.15;8.02;;;;;;;8.46;97.73;100326.56;4869849;29;20136;-91
2022/11/12 06:45:41;;;;;;;20.38;8.35;;;;;;;8.12;96.93;100320.72;4884056;29;20782;-89
2022/11/12 06:48:46;;;;;;;12.13;8.13;;;;;;;8.05;98.71;100319.22;4880444;29;20437;-87
2022/11/12 06:51:52;;;;;;;12.40;8.13;;;;;;;8.31;97.55;100313.13;4883111;29;20619;-87
2022/11/12 06:55:01;;;;;;;10.13;7.07;;;;;;;8.01;99.80;100308.06;4896482;29;20131;-91
2022/11/12 06:58:12;;;;;;;11.85;9.10;;;;;;;7.90;99.21;100303.16;4898815;29;20067;-87
2022/11/12 07:01:23;;;;;;;10.32;7.70;;;;;;;8.25;99.98;100310.72;4893926;29;20045;-89
2022/11/12 07:04:37;;;;;;;13.80;7.72;;;;;;;8.77;99.50;100311.56;4900530;29;20101;-92
2022/11/12 07:08:15;;;;;;;11.63;7.95;;;;;;;9.03;98.37;100330.66;4883540;29;20077;-91
2022/11/12 07:15:14;;;;;;;15.35;9.70;;;;;;;9.01;99.18;100342.97;4902731;29;20119;-89
2022/11/12 07:18:45;;;;;;;13.27;8.70;;;;;;;9.49;96.77;100342.00;4890232;29;20033;-85
2022/11/12 07:21:56;;;;;;;15.10;9.02;;;;;;;9.80;95.39;100337.31;4895998;29;20048;-88
2022/11/12 07:25:03;;;;;;;12.60;7.57;;;;;;;10.21;94.26;100336.53;4891351;29;20548;-86
2022/11/12 07:28:10;;;;;;;14.40;8.45;;;;;;;10.70;89.78;100334.50;4890976;29;20057;-93
2022/11/12 07:31:18;;;;;;;12.93;7.75;;;;;;;11.39;85.18;100323.56;4880621;29;20045;-85
2022/11/12 07:34:21;;;;;;;12.10;7.55;;;;;;;11.68;84.17;100316.94;4893829;29;20037;-86
2022/11/12 07:37:25;;;;;;;13.48;8.65;;;;;;;12.03;81.30;100321.34;4904346;29;20044;-86
2022/11/12 07:40:29;;;;;;;12.80;8.02;;;;;;;12.64;78.85;100328.84;4888887;29;20080;-85
2022/11/12 07:43:37;;;;;;;18.92;10.68;;;;;;;12.48;77.94;100328.81;4893752;29;20404;-85
2022/11/12 07:46:48;;;;;;;13.05;8.00;;;;;;;11.88;78.37;100335.25;4903567;29;20049;-88
2022/11/12 07:49:52;;;;;;;14.63;8.52;;;;;;;11.63;81.16;100339.06;4885308;29;20109;-86
2022/11/12 07:53:04;;;;;;;12.35;7.63;;;;;;;12.56;78.16;100331.03;4886047;29;20342;-89
2022/11/12 07:56:13;;;;;;;13.38;8.52;;;;;;;13.29;72.81;100342.09;4862946;29;20066;-87
2022/11/12 07:59:17;;;;;;;10.95;7.53;;;;;;;13.57;72.17;100343.22;4886426;29;20056;-87
2022/11/12 08:02:21;;;;;;;15.50;10.82;;;;;;;12.22;76.17;100340.63;4892847;29;20055;-86
2022/11/12 08:05:25;;;;;;;16.38;10.73;;;;;;;11.86;78.92;100339.72;4881987;29;20142;-85
2022/11/12 08:08:28;;;;;;;15.15;9.52;;;;;;;12.15;78.93;100340.09;4891066;29;20124;-88
2022/11/12 08:11:33;;;;;;;14.57;9.38;;;;;;;13.74;73.73;100341.44;4878483;29;20437;-87
2022/11/12 08:14:38;;;;;;;17.00;10.98;;;;;;;13.70;71.05;100355.69;4884126;29;20120;-87
2022/11/12 08:17:42;;;;;;;18.40;11.93;;;;;;;13.11;74.25;100355.31;4883080;29;20066;-86
2022/11/12 08:20:45;;;;;;;15.80;11.13;;;;;;;14.36;69.36;100358.94;4880120;29;20065;-88
2022/11/12 08:23:51;;;;;;;19.50;11.25;;;;;;;14.78;66.72;100363.53;4890622;29;20051;-86
2022/11/12 08:26:54;;;;;;;11.38;8.57;;;;;;;15.11;64.21;100361.56;4884819;29;20040;-89
2022/11/12 08:30:01;;;;;;;13.68;8.70;;;;;;;15.21;64.62;100362.66;4899667;29;20497;-87
2022/11/12 08:33:05;;;;;;;11.48;7.32;;;;;;;15.00;64.55;100367.50;4901831;29;20487;-86
2022/11/12 08:36:21;;;;;;;11.73;7.68;;;;;;;15.18;64.63;100373.41;4888857;29;20610;-86
2022/11/12 08:39:26;;;;;;;11.63;7.47;;;;;;;15.61;62.49;100383.06;4882829;29;20508;-87
2022/11/12 08:42:35;;;;;;;13.57;8.85;;;;;;;15.90;61.71;100368.91;4905033;29;20128;-87
2022/11/12 08:45:40;;;;;;;13.38;8.13;;;;;;;15.46;60.90;100366.41;4898059;29;20054;-86
2022/11/12 08:48:43;;;;;;;10.45;7.95;;;;;;;14.12;65.16;100367.34;4894282;29;20079;-86
2022/11/12 08:51:47;;;;;;;13.48;7.53;;;;;;;14.13;67.43;100362.94;4893040;29;20120;-87
2022/11/12 08:54:53;;;;;;;14.25;8.10;;;;;;;14.61;65.54;100369.81;4884706;29;20123;-88
2022/11/12 08:58:00;;;;;;;12.13;7.90;;;;;;;14.34;64.93;100355.56;4885587;29;20036;-89
2022/11/12 09:01:08;;;;;;;12.73;6.45;;;;;;;14.56;65.96;100362.16;4896202;29;20052;-88
2022/11/12 09:04:22;;;;;;;8.50;6.28;;;;;;;15.43;62.63;100358.69;4905995;29;20048;-89
2022/11/12 09:08:13;;;;;;;8.18;5.32;;;;;;;15.83;61.73;100370.28;4856739;29;20125;-90
2022/11/12 09:11:24;;;;;;;9.45;5.95;;;;;;;16.47;59.84;100374.00;4848219;29;20046;-92
2022/11/12 09:14:54;;;;;;;12.52;7.05;;;;;;;17.28;56.90;100376.44;4853113;29;20461;-89
2022/11/12 09:18:12;;;;;;;12.05;6.45;;;;;;;17.40;54.87;100387.13;4847875;29;20050;-87
2022/11/12 09:21:23;;;;;;;12.45;6.43;;;;;;;17.67;54.90;100386.91;4840470;29;20049;-87
2022/11/12 09:24:30;;;;;;;12.80;6.38;;;;;;;16.87;56.37;100399.56;4847157;29;20041;-87
2022/11/12 09:27:34;;;;;;;11.50;6.53;;;;;;;17.25;56.60;100395.19;4849393;29;20053;-89
2022/11/12 09:30:42;;;;;;;11.75;6.95;;;;;;;17.47;54.63;100394.50;4834068;29;20214;-90
2022/11/12 09:33:46;;;;;;;9.40;6.10;;;;;;;16.94;55.70;100386.75;4831614;29;20072;-86
2022/11/12 09:36:51;;;;;;;9.15;5.43;;;;;;;16.93;56.08;100388.53;4860060;29;20125;-88
2022/11/12 09:39:55;;;;;;;12.82;7.60;;;;;;;16.79;57.25;100383.34;4901014;29;20136;-83
2022/11/12 09:42:59;;;;;;;12.23;6.55;;;;;;;16.66;56.93;100376.28;4893718;29;20139;-87
2022/11/12 09:46:42;;;;;;;12.65;7.57;;;;;;;15.70;60.13;100381.63;4913148;29;20028;-87
2022/11/12 09:49:56;;;;;;;11.32;7.78;;;;;;;16.54;58.35;100383.25;4899377;29;20049;-88
2022/11/12 09:53:03;;;;;;;11.05;6.80;;;;;;;17.07;59.40;100371.66;4875846;29;20612;-81
2022/11/12 09:56:12;;;;;;;14.30;8.27;;;;;;;17.33;55.91;100371.66;4867438;29;20119;-82
2022/11/12 09:59:16;;;;;;;16.90;9.57;;;;;;;16.65;57.97;100373.72;4904164;29;20048;-83
2022/11/12 10:02:34;;;;;;;15.15;8.65;;;;;;;17.14;56.79;100374.75;4900673;29;20472;-85
2022/11/12 10:05:51;;;;;;;11.13;7.18;;;;;;;18.31;52.87;100379.59;4894901;29;20041;-84
2022/11/12 10:09:23;;;;;;;16.65;9.65;;;;;;;17.55;55.61;100386.00;4899640;29;20049;-84
2022/11/12 10:13:33;;;;;;;15.23;8.30;;;;;;;16.04;60.36;100381.25;4816144;29;20056;-79
2022/11/12 10:17:22;;;;;;;11.57;7.95;;;;;;;16.02;60.37;100380.50;4761418;30;20052;-83
2022/11/12 10:20:36;;;;;;;11.48;7.55;;;;;;;16.82;57.58;100381.34;4739568;30;20062;-82
2022/11/12 10:23:44;;;;;;;11.55;8.45;;;;;;;16.74;58.02;100381.03;4761139;30;20068;-86
2022/11/12 10:26:47;;;;;;;12.23;7.38;;;;;;;17.02;61.72;100376.47;4746416;30;20051;-87
2022/11/12 10:30:14;;;;;;;13.98;7.75;;;;;;;17.28;61.19;100379.09;4751637;30;20179;-87
2022/11/12 10:33:18;;;;;;;12.25;7.30;;;;;;;18.23;56.40;100384.63;4763039;30;20062;-86
2022/11/12 10:36:34;;;;;;;11.85;7.38;;;;;;;18.22;59.83;100388.25;4762780;30;20716;-81
2022/11/12 10:39:41;;;;;;;9.88;7.43;;;;;;;19.13;54.94;100384.09;4761736;30;20059;-87
2022/11/12 10:42:56;;;;;;;10.15;7.40;;;;;;;19.74;51.55;100374.78;4763569;30;20615;-87
2022/11/12 10:46:17;;;;;;;10.52;7.13;;;;;;;20.14;52.29;100361.84;4759965;30;20462;-86
2022/11/12 10:49:24;;;;;;;12.93;7.95;;;;;;;19.13;50.68;100361.00;4823866;29;20500;-86
2022/11/12 10:52:27;;;;;;;10.30;6.82;;;;;;;18.77;52.18;100366.41;4888531;29;20045;-87
2022/11/12 10:55:33;;;;;;;10.57;6.15;;;;;;;19.87;50.94;100365.78;4861579;29;20549;-84
2022/11/12 10:58:37;;;;;;;10.38;6.43;;;;;;;19.78;48.61;100360.25;4853682;29;20060;-82
2022/11/12 11:01:43;;;;;;;10.70;6.85;;;;;;;19.00;50.93;100363.75;4857193;29;20452;-85
2022/11/12 11:05:25;;;;;;;10.60;6.50;;;;;;;18.62;52.70;100360.50;4860850;29;20089;-92
2022/11/12 11:08:43;;;;;;;9.07;6.03;;;;;;;19.18;50.05;100363.28;4846533;29;20473;-85
2022/11/12 11:11:52;;;;;;;9.05;6.60;;;;;;;19.38;49.24;100358.19;4859119;29;20037;-84
2022/11/12 11:15:20;;;;;;;13.65;6.53;;;;;;;18.44;51.02;100357.47;4863446;29;20084;-85
2022/11/12 11:18:23;;;;;;;12.07;6.18;;;;;;;18.47;53.52;100366.00;4869650;29;20045;-87
2022/11/12 11:21:39;;;;;;;11.95;6.50;;;;;;;19.34;49.77;100370.88;4870362;29;20057;-86
2022/11/12 11:25:01;;;;;;;11.13;6.35;;;;;;;18.74;50.41;100358.69;4869859;29;20567;-87
2022/11/12 11:28:14;;;;;;;12.73;7.70;;;;;;;17.73;54.61;100354.66;4881433;29;20528;-87
2022/11/12 11:31:26;;;;;;;13.95;8.02;;;;;;;17.35;55.19;100364.44;4880413;29;20044;-85
2022/11/12 11:34:29;;;;;;;14.15;7.80;;;;;;;19.54;51.80;100355.97;4889350;29;20045;-85
2022/11/12 11:37:46;;;;;;;11.25;6.22;;;;;;;21.04;49.07;100348.03;4888324;29;20048;-85
2022/11/12 11:40:55;;;;;;;13.10;7.13;;;;;;;18.40;52.50;100350.69;4892287;29;20052;-85
2022/11/12 11:44:25;;;;;;;10.45;7.07;;;;;;;17.52;56.26;100335.88;4901512;29;20388;-85
2022/11/12 11:47:53;;;;;;;14.82;9.60;;;;;;;17.77;54.28;100342.03;4898696;29;20076;-80
2022/11/12 11:51:35;;;;;;;15.02;8.20;;;;;;;18.53;53.03;100335.53;4880079;29;20048;-85
2022/11/12 11:55:07;;;;;;;12.18;7.30;;;;;;;18.48;52.99;100340.34;4888552;29;20049;-86
2022/11/12 11:58:10;;;;;;;;;;;;;;;18.43;54.10;100343.34;4891732;29;20036;-86
2022/11/12 12:01:29;;;;;;;12.98;7.93;;;;;;;18.61;53.10;100340.22;4880066;29;19927;-86
2022/11/12 12:04:48;;;;;;;12.30;7.97;;;;;;;18.05;53.67;100336.47;4902439;29;20122;-86
2022/11/12 12:08:02;;;;;;;14.02;7.78;;;;;;;18.73;52.67;100327.81;4887485;29;20408;-90
2022/11/12 12:11:19;;;;;;;11.88;6.55;;;;;;;19.62;51.56;100331.44;4888915;29;20100;-87
2022/11/12 12:14:42;;;;;;;16.67;7.90;;;;;;;19.42;50.58;100317.13;4901676;29;20051;-87
2022/11/12 12:17:48;;;;;;;12.77;7.55;;;;;;;18.84;51.96;100325.16;4891292;29;20041;-87
2022/11/12 12:20:59;;;;;;;13.30;7.45;;;;;;;18.41;53.65;100320.56;4903299;29;20036;-86
2022/11/12 12:24:24;;;;;;;12.18;7.85;;;;;;;18.25;53.70;100323.56;4888722;29;20043;-86
2022/11/12 12:27:37;;;;;;;12.55;7.90;;;;;;;19.31;50.83;100326.81;4880279;29;20112;-88
2022/11/12 12:30:46;;;;;;;10.95;6.93;;;;;;;19.41;51.45;100318.94;4889048;29;20062;-86
2022/11/12 12:33:56;;;;;;;20.05;6.47;;;;;;;19.92;51.19;100311.25;4865954;29;20068;-87
2022/11/12 12:37:28;;;;;;;11.35;6.72;;;;;;;20.38;48.16;100316.34;4889817;29;20496;-87
2022/11/12 12:40:45;;;;;;;12.43;6.78;;;;;;;20.58;47.69;100315.59;4880843;29;20051;-86
2022/11/12 12:44:10;;;;;;;11.60;6.53;;;;;;;20.85;47.43;100314.16;4888385;29;20044;-87
2022/11/12 12:47:16;;;;;;;10.98;6.55;;;;;;;20.74;47.64;100313.28;4877772;29;20056;-86
2022/11/12 12:50:28;;;;;;;10.85;5.82;;;;;;;20.85;47.56;100312.34;4889907;29;20037;-88
2022/11/12 12:53:34;;;;;;;9.02;5.72;;;;;;;20.90;48.94;100319.91;4879629;29;20077;-80
2022/11/12 12:56:43;;;;;;;11.10;6.68;;;;;;;21.49;46.78;100317.41;4875553;29;20077;-83
2022/11/12 12:59:46;;;;;;;9.43;5.80;;;;;;;21.82;45.71;100311.81;4887688;29;20055;-85
2022/11/12 13:02:50;;;;;;;9.68;6.25;;;;;;;20.86;45.84;100311.34;4882771;29;20397;-84
2022/11/12 13:06:06;;;;;;;9.32;6.07;;;;;;;20.68;48.65;100303.16;4881073;29;20100;-87
2022/11/12 13:09:31;;;;;;;10.77;6.25;;;;;;;21.85;45.56;100302.72;4888869;29;20490;-83
2022/11/12 13:13:05;;;;;;;9.68;6.20;;;;;;;21.72;45.41;100302.97;4896284;29;20124;-86
2022/11/12 13:16:08;;;;;;;10.27;7.07;;;;;;;20.24;47.03;100300.72;4897429;29;20136;-83
2022/11/12 13:19:26;;;;;;;10.18;5.80;;;;;;;20.58;47.86;100310.28;4894682;29;20474;-85
2022/11/12 13:22:49;;;;;;;8.48;5.13;;;;;;;21.90;47.88;100309.28;4901279;29;20052;-86
2022/11/12 13:26:30;;;;;;;11.13;6.95;;;;;;;21.66;44.65;100309.69;4876258;29;20060;-84
2022/11/12 13:29:37;;;;;;;13.65;7.22;;;;;;;22.00;45.78;100314.59;4879030;29;20041;-83
2022/11/12 13:32:43;;;;;;;12.05;7.03;;;;;;;21.34;47.10;100314.31;4878782;29;20055;-87
2022/11/12 13:35:46;;;;;;;11.40;7.65;;;;;;;21.61;45.20;100307.44;4877393;29;20115;-84
2022/11/12 13:38:51;;;;;;;13.43;7.38;;;;;;;21.16;46.77;100308.81;4882543;29;20115;-86
2022/11/12 13:45:26;;;;;;;12.45;6.75;;;;;;;20.08;49.29;100307.31;4886010;29;20758;-86
2022/11/12 13:48:35;;;;;;;13.20;7.97;;;;;;;19.03;50.67;100315.72;4909393;29;20049;-82
2022/11/12 13:51:45;;;;;;;11.63;7.10;;;;;;;19.74;51.74;100308.31;4914963;29;20044;-86
2022/11/12 13:55:11;;;;;;;11.77;6.82;;;;;;;19.72;51.97;100302.28;4908326;29;20045;-83
2022/11/12 13:58:26;;;;;;;13.65;7.28;;;;;;;20.02;50.33;100295.38;4893622;29;20033;-85
2022/11/12 14:01:32;;;;;;;12.18;6.53;;;;;;;20.14;47.97;100296.16;4878591;29;20144;-87
2022/11/12 14:04:36;;;;;;;12.02;6.50;;;;;;;20.22;48.02;100305.31;4894853;29;20117;-87
2022/11/12 14:07:52;;;;;;;10.38;6.40;;;;;;;20.08;49.88;100295.84;4879989;29;20411;-94
2022/11/12 14:11:20;;;;;;;14.85;6.82;;;;;;;18.78;51.28;100306.22;4890318;29;20725;-85
2022/11/12 14:15:11;;;;;;;16.50;8.25;;;;;;;17.99;54.23;100303.31;4865163;29;20151;-87
2022/11/12 14:18:39;;;;;;;12.85;8.02;;;;;;;17.42;55.69;100300.44;4872492;29;20092;-86
2022/11/12 14:21:57;;;;;;;13.55;7.45;;;;;;;17.38;59.46;100299.81;4897972;29;20051;-83
2022/11/12 14:25:02;;;;;;;22.33;13.52;;;;;;;17.21;60.55;100295.75;4902398;29;20068;-81
2022/11/12 14:28:22;;;;;;;24.23;12.93;;;;;;;17.60;56.62;100293.78;4890393;29;20048;-79
2022/11/12 14:31:26;;;;;;;15.60;9.10;;;;;;;17.03;58.04;100293.44;4877246;29;20033;-83
2022/11/12 14:34:35;;;;;;;12.45;7.30;;;;;;;17.70;56.25;100288.66;4897107;29;21899;-88
2022/11/12 14:37:51;;;;;;;16.90;9.95;;;;;;;17.72;56.56;100289.34;4878200;29;20048;-77
2022/11/12 14:41:23;;;;;;;12.25;6.25;;;;;;;17.71;58.34;100284.16;4877196;29;20164;-81
2022/11/12 14:44:35;;;;;;;10.40;6.07;;;;;;;17.92;60.01;100286.19;4895462;29;20044;-84
2022/11/12 14:47:38;;;;;;;10.82;6.80;;;;;;;17.89;58.59;100286.44;4880800;29;20052;-82
2022/11/12 14:50:45;;;;;;;11.80;6.78;;;;;;;17.34;59.02;100287.75;4887509;29;20056;-85
2022/11/12 14:54:01;;;;;;;13.82;5.55;;;;;;;16.96;60.90;100284.22;4890122;29;20051;-85
2022/11/12 14:57:05;;;;;;;9.77;5.78;;;;;;;16.73;61.37;100279.63;4903017;29;20704;-84
2022/11/12 15:00:21;;;;;;;12.63;6.93;;;;;;;16.19;64.15;100278.91;4892261;29;20056;-82
2022/11/12 15:03:32;;;;;;;13.13;8.07;;;;;;;16.82;66.64;100278.16;4892867;29;20044;-87